createdAt,value
2019-03-18T00:10:44.729Z,2.70
2019-03-18T00:32:54.155Z,3.80
2019-03-18T00:43:51.343Z,3.80
2019-03-18T00:54:52.857Z,4.70
2019-03-18T01:00:11.631Z,5.47
2019-03-18T01:22:13.979Z,4.83
2019-03-18T01:57:57.634Z,5.80
2019-03-18T02:27:37.187Z,6.10
2019-03-18T02:32:58.416Z,6.73
2019-03-18T02:49:29.169Z,5.87
2019-03-18T03:00:23.979Z,5.90
2019-03-18T03:17:01.476Z,4.93
2019-03-18T03:22:19.996Z,3.80
2019-03-18T03:27:40.058Z,3.40
2019-03-18T03:32:59.383Z,4.40
2019-03-18T03:38:19.521Z,3.53
2019-03-18T03:43:39.607Z,5.20
2019-03-18T03:48:58.741Z,5.83
2019-03-18T03:54:17.402Z,3.40
2019-03-18T03:59:43.061Z,6.57
2019-03-18T04:05:01.692Z,7.20
2019-03-18T04:10:25.553Z,6.10
2019-03-18T04:15:45.330Z,5.07
2019-03-18T04:21:05.360Z,6.27
2019-03-18T04:26:29.266Z,9.18
2019-03-18T04:31:45.659Z,8.67
2019-03-18T04:37:25.321Z,9.33
2019-03-18T04:42:44.920Z,10.40
2019-03-18T04:48:05.092Z,11.07
2019-03-18T04:53:28.698Z,10.30
2019-03-18T04:58:48.876Z,10.37
2019-03-18T05:04:09.467Z,13.87
2019-03-18T05:14:55.293Z,13.43
2019-03-18T05:20:13.938Z,13.50
2019-03-18T05:25:51.075Z,13.23
2019-03-18T05:31:09.706Z,13.87
2019-03-18T05:36:28.854Z,9.47
2019-03-18T05:41:48.004Z,15.17
2019-03-18T05:47:08.269Z,10.27
2019-03-18T05:52:30.351Z,15.63
2019-03-18T05:57:50.048Z,12.97
2019-03-18T06:08:35.966Z,12.67
2019-03-18T06:13:56.642Z,16.43
2019-03-18T06:19:16.961Z,12.70
2019-03-18T06:24:37.942Z,13.73
2019-03-18T06:29:58.542Z,20.47
2019-03-18T06:35:20.403Z,21.33
2019-03-18T06:40:39.092Z,15.40
2019-03-18T06:45:57.663Z,12.77
2019-03-18T06:51:16.279Z,15.30
2019-03-18T06:56:35.360Z,13.63
2019-03-18T07:02:13.313Z,16.00
2019-03-18T07:07:31.980Z,13.93
2019-03-18T07:12:52.236Z,10.13
2019-03-18T07:18:18.336Z,9.97
2019-03-18T07:23:31.193Z,10.10
2019-03-18T07:28:52.269Z,10.17
2019-03-18T07:34:12.425Z,6.75
2019-03-18T07:56:33.360Z,9.77
2019-03-18T08:13:11.415Z,7.50
2019-03-18T08:54:43.172Z,5.53
2019-03-18T09:00:01.738Z,7.07
2019-03-18T09:10:58.637Z,6.17
2019-03-18T09:39:33.239Z,2.70
2019-03-18T09:44:57.743Z,3.87
2019-03-18T10:07:23.800Z,2.90
2019-03-18T10:18:31.841Z,3.03
2019-03-18T10:59:22.310Z,3.43
2019-03-18T11:04:41.405Z,1.63
2019-03-18T11:32:29.321Z,2.10
2019-03-18T11:49:00.623Z,1.53
2019-03-18T11:54:24.825Z,2.20
2019-03-18T12:10:57.488Z,2.08
2019-03-18T12:16:16.594Z,2.93
2019-03-18T12:38:38.262Z,0.90
2019-03-18T12:49:34.683Z,2.07
2019-03-18T13:00:35.414Z,1.37
2019-03-18T13:05:57.056Z,1.30
2019-03-18T13:16:54.133Z,1.47
2019-03-18T13:22:14.307Z,1.80
2019-03-18T13:27:32.914Z,1.30
2019-03-18T13:32:54.091Z,1.37
2019-03-18T13:38:33.669Z,1.73
2019-03-18T13:43:52.051Z,1.87
2019-03-18T13:49:10.658Z,1.70
2019-03-18T13:54:32.236Z,1.53
2019-03-18T13:59:50.814Z,1.50
2019-03-18T14:05:34.916Z,1.43
2019-03-18T14:16:34.036Z,1.50
2019-03-18T14:27:19.662Z,1.40
2019-03-18T14:32:38.984Z,1.03
2019-03-18T14:37:59.118Z,1.47
2019-03-18T14:43:17.713Z,1.47
2019-03-18T14:48:37.833Z,1.90
2019-03-18T14:54:01.634Z,1.70
2019-03-18T14:59:21.761Z,1.53
2019-03-18T15:04:40.187Z,2.20
2019-03-18T15:10:03.284Z,2.03
2019-03-18T15:15:23.204Z,1.87
2019-03-18T15:20:41.816Z,1.47
2019-03-18T15:26:00.464Z,1.53
2019-03-18T15:31:19.025Z,1.50
2019-03-18T15:36:43.852Z,1.50
2019-03-18T15:42:02.473Z,2.10
2019-03-18T15:47:22.118Z,1.83
2019-03-18T15:52:41.290Z,1.70
2019-03-18T15:58:20.134Z,1.50
2019-03-18T16:03:40.265Z,1.47
2019-03-18T16:09:00.600Z,1.57
2019-03-18T16:14:19.440Z,2.67
2019-03-18T16:19:39.285Z,1.40
2019-03-18T16:24:59.381Z,2.00
2019-03-18T16:30:22.710Z,1.50
2019-03-18T16:35:43.681Z,1.90
2019-03-18T16:41:02.865Z,2.13
2019-03-18T16:46:24.523Z,1.93
2019-03-18T16:51:44.181Z,2.10
2019-03-18T16:57:05.563Z,2.00
2019-03-18T17:02:24.430Z,2.40
2019-03-18T17:07:44.385Z,2.40
2019-03-18T17:13:03.007Z,2.00
2019-03-18T17:18:22.038Z,3.20
2019-03-18T17:23:40.613Z,2.63
2019-03-18T17:29:06.296Z,3.17
2019-03-18T17:34:24.822Z,2.30
2019-03-18T17:39:44.466Z,2.00
2019-03-18T17:45:05.977Z,2.17
2019-03-18T17:50:34.458Z,2.33
2019-03-18T17:55:58.365Z,2.27
2019-03-18T18:01:18.157Z,2.23
2019-03-18T18:06:43.753Z,2.43
2019-03-18T18:12:02.475Z,2.40
2019-03-18T18:17:24.607Z,2.90
2019-03-18T18:28:16.812Z,2.33
2019-03-18T18:33:43.705Z,1.90
2019-03-18T18:39:02.717Z,2.10
2019-03-18T18:49:55.762Z,2.40
2019-03-18T19:11:53.621Z,2.23
2019-03-18T19:24:37.652Z,2.47
2019-03-18T19:35:34.700Z,2.00
2019-03-18T19:40:54.489Z,2.07
2019-03-18T19:46:18.109Z,2.10
2019-03-18T20:02:40.740Z,2.50
2019-03-18T20:36:17.571Z,3.20
2019-03-18T20:41:39.156Z,2.27
2019-03-18T20:46:57.799Z,2.17
2019-03-18T20:52:26.641Z,2.47
2019-03-18T20:57:49.346Z,2.70
2019-03-18T21:08:43.510Z,2.73
2019-03-18T21:19:38.717Z,2.57
2019-03-18T21:25:15.252Z,2.90
2019-03-18T21:31:00.761Z,3.00
2019-03-18T21:36:38.234Z,2.83
2019-03-18T21:53:00.003Z,2.73
2019-03-18T22:03:55.708Z,2.63
2019-03-18T22:14:35.034Z,2.80
2019-03-18T22:19:53.587Z,2.87
2019-03-18T22:25:13.383Z,3.03
2019-03-18T22:36:35.087Z,3.43
2019-03-18T22:41:57.366Z,3.40
2019-03-18T22:47:16.017Z,3.50
2019-03-18T22:52:34.787Z,2.97
2019-03-18T22:57:56.114Z,3.00
2019-03-18T23:03:14.918Z,2.87
2019-03-18T23:08:35.038Z,3.43
2019-03-18T23:13:54.793Z,3.30
2019-03-18T23:19:13.723Z,3.37
2019-03-18T23:30:04.970Z,4.07
2019-03-18T23:35:27.003Z,3.67
2019-03-18T23:40:47.039Z,3.97
2019-03-18T23:46:07.159Z,3.13
2019-03-18T23:56:43.631Z,3.40
